createdAt,value
2022-10-24T00:02:30.740Z,0.95
2022-10-24T00:06:13.408Z,0.90
2022-10-24T00:09:55.277Z,0.70
2022-10-24T00:13:38.037Z,0.82
2022-10-24T00:17:19.887Z,0.55
2022-10-24T00:21:02.280Z,0.63
2022-10-24T00:24:44.116Z,0.60
2022-10-24T00:28:26.029Z,0.90
2022-10-24T00:32:07.956Z,0.80
2022-10-24T00:35:49.931Z,0.80
2022-10-24T00:39:31.804Z,0.80
2022-10-24T00:43:19.499Z,1.00
2022-10-24T00:47:24.948Z,1.00
2022-10-24T00:51:19.208Z,1.38
2022-10-24T00:55:03.064Z,1.25
2022-10-24T00:58:45.875Z,1.45
2022-10-24T01:02:27.893Z,1.45
2022-10-24T01:06:12.771Z,1.48
2022-10-24T01:10:15.226Z,1.20
2022-10-24T01:14:11.273Z,1.73
2022-10-24T01:17:58.873Z,1.75
2022-10-24T01:21:45.597Z,1.58
2022-10-24T01:25:47.167Z,1.60
2022-10-24T01:30:08.083Z,1.60
2022-10-24T01:33:56.722Z,1.67
2022-10-24T01:38:04.576Z,1.83
2022-10-24T01:41:47.973Z,1.77
2022-10-24T01:45:35.564Z,2.00
2022-10-24T01:49:21.193Z,1.73
2022-10-24T01:53:04.473Z,1.80
2022-10-24T01:56:46.397Z,1.70
2022-10-24T02:00:28.383Z,1.60
2022-10-24T02:04:12.840Z,1.80
2022-10-24T02:07:58.925Z,1.35
2022-10-24T02:11:41.709Z,1.15
2022-10-24T02:15:30.777Z,1.20
2022-10-24T02:19:13.869Z,0.70
2022-10-24T02:23:06.033Z,0.60
2022-10-24T02:26:58.226Z,0.60
2022-10-24T02:30:47.316Z,0.45
2022-10-24T02:34:33.784Z,0.50
2022-10-24T02:38:29.108Z,0.40
2022-10-24T02:42:12.840Z,0.40
2022-10-24T02:45:57.992Z,0.60
2022-10-24T02:49:40.868Z,0.50
2022-10-24T02:53:25.636Z,0.40
2022-10-24T02:57:07.591Z,0.50
2022-10-24T03:00:49.604Z,0.52
2022-10-24T03:04:31.506Z,0.40
2022-10-24T03:08:13.739Z,0.68
2022-10-24T03:11:55.695Z,0.43
2022-10-24T03:15:37.756Z,0.40
2022-10-24T03:19:20.116Z,0.40
2022-10-24T03:23:02.031Z,0.47
2022-10-24T03:26:44.938Z,0.30
2022-10-24T03:30:26.855Z,0.40
2022-10-24T03:34:08.720Z,0.50
2022-10-24T03:37:50.692Z,0.82
2022-10-24T03:41:32.560Z,0.60
2022-10-24T03:45:14.471Z,0.70
2022-10-24T03:48:56.405Z,0.80
2022-10-24T03:52:38.323Z,0.60
2022-10-24T03:56:20.153Z,0.63
2022-10-24T04:00:02.070Z,0.60
2022-10-24T04:03:47.608Z,0.75
2022-10-24T04:07:29.479Z,0.40
2022-10-24T04:11:12.199Z,0.70
2022-10-24T04:14:54.071Z,0.50
2022-10-24T04:18:36.111Z,0.40
2022-10-24T04:22:18.115Z,0.38
2022-10-24T04:26:00.330Z,0.40
2022-10-24T04:29:42.222Z,0.50
2022-10-24T04:33:24.925Z,0.40
2022-10-24T04:37:06.799Z,0.38
2022-10-24T04:40:50.484Z,0.60
2022-10-24T04:44:32.425Z,0.40
2022-10-24T04:48:15.465Z,0.50
2022-10-24T04:51:57.433Z,0.55
2022-10-24T04:55:39.315Z,0.75
2022-10-24T04:59:21.260Z,0.68
2022-10-24T05:03:03.761Z,0.60
2022-10-24T05:06:46.393Z,0.47
2022-10-24T05:10:28.247Z,0.73
2022-10-24T05:14:10.206Z,0.60
2022-10-24T05:17:52.059Z,0.60
2022-10-24T05:21:33.979Z,0.63
2022-10-24T05:25:15.889Z,0.80
2022-10-24T05:28:57.777Z,0.50
2022-10-24T05:32:39.888Z,0.77
2022-10-24T05:36:21.867Z,0.43
2022-10-24T05:40:04.123Z,0.70
2022-10-24T05:43:46.016Z,0.60
2022-10-24T05:47:29.254Z,0.70
2022-10-24T05:51:11.386Z,0.65
2022-10-24T05:55:06.920Z,0.63
2022-10-24T05:58:49.441Z,0.50
2022-10-24T06:02:31.509Z,0.85
2022-10-24T06:06:13.589Z,0.60
2022-10-24T06:09:55.542Z,0.70
2022-10-24T06:13:37.871Z,0.80
2022-10-24T06:17:19.733Z,0.63
2022-10-24T06:21:03.751Z,0.70
2022-10-24T06:24:45.628Z,0.60
2022-10-24T06:28:27.800Z,0.73
2022-10-24T06:32:09.702Z,0.70
2022-10-24T06:35:51.551Z,0.70
2022-10-24T06:39:33.565Z,0.80
2022-10-24T06:43:16.424Z,0.60
2022-10-24T06:46:58.259Z,0.52
2022-10-24T06:50:40.686Z,0.60
2022-10-24T06:54:25.212Z,0.60
2022-10-24T06:58:09.664Z,0.60
2022-10-24T07:01:51.685Z,0.70
2022-10-24T07:05:33.776Z,0.73
2022-10-24T07:09:15.912Z,0.80
2022-10-24T07:12:57.872Z,0.73
2022-10-24T07:16:40.067Z,0.70
2022-10-24T07:20:22.067Z,0.70
2022-10-24T07:24:04.651Z,0.80
2022-10-24T07:27:46.582Z,1.10
2022-10-24T07:31:32.225Z,0.80
2022-10-24T07:35:14.325Z,0.77
2022-10-24T07:38:57.560Z,0.80
2022-10-24T07:42:39.452Z,0.60
2022-10-24T07:46:21.887Z,0.70
2022-10-24T07:50:05.400Z,0.70
2022-10-24T07:53:47.864Z,0.80
2022-10-24T07:57:29.806Z,0.85
2022-10-24T08:01:17.719Z,0.50
2022-10-24T08:04:59.710Z,0.70
2022-10-24T08:08:42.804Z,0.70
2022-10-24T08:12:24.733Z,0.75
2022-10-24T08:16:12.653Z,0.80
2022-10-24T08:19:54.709Z,0.77
2022-10-24T08:23:39.473Z,0.90
2022-10-24T08:27:21.515Z,0.90
2022-10-24T08:31:06.584Z,0.90
2022-10-24T08:34:48.496Z,0.90
2022-10-24T08:38:30.818Z,1.00
2022-10-24T08:42:16.517Z,0.75
2022-10-24T08:46:15.256Z,1.00
2022-10-24T08:50:30.591Z,0.90
2022-10-24T08:54:22.822Z,0.70
2022-10-24T08:58:05.717Z,0.68
2022-10-24T09:01:53.967Z,0.85
2022-10-24T09:05:54.255Z,0.90
2022-10-24T09:09:46.930Z,0.80
2022-10-24T09:13:30.515Z,0.60
2022-10-24T09:17:25.912Z,0.82
2022-10-24T09:21:09.962Z,1.10
2022-10-24T09:25:05.858Z,0.95
2022-10-24T09:28:47.745Z,1.00
2022-10-24T09:32:32.474Z,0.95
2022-10-24T09:36:16.587Z,0.90
2022-10-24T09:40:08.828Z,0.93
2022-10-24T09:43:54.943Z,1.02
2022-10-24T09:47:39.646Z,0.88
2022-10-24T09:51:37.472Z,0.80
2022-10-24T09:55:27.602Z,1.00
2022-10-24T09:59:18.335Z,1.10
2022-10-24T10:03:24.037Z,1.08
2022-10-24T10:07:13.190Z,0.90
2022-10-24T10:11:10.995Z,1.25
2022-10-24T10:14:53.603Z,1.70
2022-10-24T10:18:45.678Z,1.10
2022-10-24T10:22:32.768Z,1.20
2022-10-24T10:26:27.437Z,0.90
2022-10-24T10:30:12.546Z,1.10
2022-10-24T10:34:14.132Z,1.20
2022-10-24T10:38:04.957Z,1.40
2022-10-24T10:42:14.672Z,1.67
2022-10-24T10:46:13.244Z,1.00
2022-10-24T10:50:00.207Z,1.65
2022-10-24T10:53:49.989Z,1.70
2022-10-24T10:57:50.112Z,1.50
2022-10-24T11:01:42.844Z,1.20
2022-10-24T11:05:56.057Z,1.30
2022-10-24T11:09:48.368Z,1.38
2022-10-24T11:13:37.477Z,1.60
2022-10-24T11:17:27.901Z,1.40
2022-10-24T11:21:16.138Z,1.30
2022-10-24T11:25:16.230Z,1.25
2022-10-24T11:29:16.467Z,1.80
2022-10-24T11:33:02.070Z,1.42
2022-10-24T11:36:55.892Z,1.57
2022-10-24T11:40:42.672Z,1.40
2022-10-24T11:44:30.249Z,1.55
2022-10-24T11:48:25.778Z,1.58
2022-10-24T11:52:30.977Z,1.40
2022-10-24T11:56:36.859Z,1.98
2022-10-24T12:00:30.811Z,1.40
2022-10-24T12:04:24.621Z,1.67
2022-10-24T12:08:26.587Z,1.30
2022-10-24T12:12:39.059Z,1.60
2022-10-24T12:17:02.489Z,1.67
2022-10-24T12:20:44.472Z,1.65
2022-10-24T12:24:40.884Z,1.25
2022-10-24T12:28:26.159Z,1.40
2022-10-24T12:32:38.631Z,1.60
2022-10-24T12:36:59.194Z,1.40
2022-10-24T12:40:48.855Z,1.50
2022-10-24T12:44:33.667Z,1.60
2022-10-24T12:48:26.457Z,1.45
2022-10-24T12:52:31.605Z,1.35
2022-10-24T12:56:16.225Z,1.83
2022-10-24T13:00:00.323Z,1.60
2022-10-24T13:03:53.077Z,1.30
2022-10-24T13:08:02.746Z,1.85
2022-10-24T13:11:54.264Z,1.52
2022-10-24T13:15:48.400Z,1.30
2022-10-24T13:19:31.292Z,1.70
2022-10-24T13:23:27.022Z,1.70
2022-10-24T13:27:12.919Z,1.90
2022-10-24T13:30:58.090Z,1.30
2022-10-24T13:34:52.513Z,1.60
2022-10-24T13:38:41.775Z,1.48
2022-10-24T13:42:35.086Z,1.50
2022-10-24T13:46:54.220Z,1.60
2022-10-24T13:50:50.783Z,1.40
2022-10-24T13:54:36.360Z,1.03
2022-10-24T13:58:20.645Z,1.30
2022-10-24T14:02:08.475Z,1.10
2022-10-24T14:05:52.917Z,0.70
2022-10-24T14:09:42.790Z,0.47
2022-10-24T14:13:26.504Z,0.40
2022-10-24T14:17:23.032Z,0.32
2022-10-24T14:24:49.145Z,0.35
2022-10-24T14:28:34.745Z,0.60
2022-10-24T14:32:16.674Z,0.40
2022-10-24T14:36:02.400Z,0.40
2022-10-24T14:39:44.708Z,0.43
2022-10-24T14:43:29.089Z,0.50
2022-10-24T14:47:34.185Z,0.50
2022-10-24T14:51:25.665Z,0.65
2022-10-24T14:55:18.711Z,0.60
2022-10-24T14:59:04.852Z,0.70
2022-10-24T15:02:49.879Z,0.70
2022-10-24T15:06:40.044Z,0.90
2022-10-24T15:10:28.251Z,0.57
2022-10-24T15:14:39.512Z,0.57
2022-10-24T15:18:27.721Z,0.50
2022-10-24T15:22:37.592Z,0.70
2022-10-24T15:26:21.345Z,0.68
2022-10-24T15:30:04.129Z,0.47
2022-10-24T15:33:46.762Z,0.60
2022-10-24T15:37:28.765Z,0.68
2022-10-24T15:41:10.659Z,0.85
2022-10-24T15:44:52.564Z,1.40
2022-10-24T15:48:34.470Z,1.52
2022-10-24T15:52:16.810Z,1.42
2022-10-24T15:55:58.769Z,0.80
2022-10-24T15:59:40.648Z,0.88
2022-10-24T16:03:24.316Z,0.80
2022-10-24T16:07:06.344Z,0.80
2022-10-24T16:10:50.603Z,0.90
2022-10-24T16:14:32.630Z,0.82
2022-10-24T16:18:14.608Z,0.80
2022-10-24T16:21:58.596Z,0.95
2022-10-24T16:25:40.854Z,0.95
2022-10-24T16:29:22.700Z,0.80
2022-10-24T16:33:05.305Z,0.98
2022-10-24T16:36:47.222Z,1.10
2022-10-24T16:40:30.414Z,0.90
2022-10-24T16:44:13.863Z,1.00
2022-10-24T16:47:55.792Z,1.30
2022-10-24T16:51:41.801Z,3.90
2022-10-24T16:55:26.921Z,2.03
2022-10-24T16:59:11.618Z,1.63
2022-10-24T17:02:58.175Z,1.88
2022-10-24T17:06:40.103Z,1.20
2022-10-24T17:10:24.685Z,1.00
2022-10-24T17:17:55.266Z,1.85
2022-10-24T17:21:37.237Z,1.70
2022-10-24T17:25:25.666Z,1.80
2022-10-24T17:29:12.219Z,1.33
2022-10-24T17:32:54.230Z,1.40
2022-10-24T17:36:38.361Z,1.05
2022-10-24T17:40:24.510Z,0.80
2022-10-24T17:44:07.577Z,1.20
2022-10-24T17:47:50.091Z,1.33
2022-10-24T17:51:37.069Z,1.73
2022-10-24T17:55:41.381Z,1.75
2022-10-24T17:59:25.367Z,1.40
2022-10-24T18:03:08.693Z,1.20
2022-10-24T18:06:50.726Z,1.48
2022-10-24T18:10:33.024Z,1.48
2022-10-24T18:14:14.952Z,1.33
2022-10-24T18:17:56.971Z,0.98
2022-10-24T18:21:38.892Z,1.20
2022-10-24T18:25:23.004Z,1.30
2022-10-24T18:29:06.040Z,1.05
2022-10-24T18:32:48.307Z,1.10
2022-10-24T18:36:31.902Z,1.25
2022-10-24T18:40:14.379Z,1.00
2022-10-24T18:43:59.668Z,1.25
2022-10-24T18:47:42.372Z,1.38
2022-10-24T18:51:39.684Z,1.27
2022-10-24T18:55:23.176Z,1.30
2022-10-24T18:59:14.942Z,1.10
2022-10-24T19:03:23.585Z,1.10
2022-10-24T19:07:05.508Z,1.10
2022-10-24T19:10:47.588Z,1.13
2022-10-24T19:14:29.648Z,1.63
2022-10-24T19:18:15.806Z,1.67
2022-10-24T19:21:57.630Z,4.43
2022-10-24T19:25:39.569Z,2.55
2022-10-24T19:29:21.521Z,4.32
2022-10-24T19:33:04.035Z,5.53
2022-10-24T19:36:45.937Z,13.77
2022-10-24T19:40:27.870Z,10.77
2022-10-24T19:44:09.754Z,6.30
2022-10-24T19:47:56.948Z,3.17
2022-10-24T19:51:38.772Z,2.80
2022-10-24T19:55:22.672Z,1.80
2022-10-24T19:59:04.613Z,1.88
2022-10-24T20:02:46.651Z,1.73
2022-10-24T20:06:28.772Z,1.20
2022-10-24T20:10:10.710Z,1.58
2022-10-24T20:13:52.640Z,1.42
2022-10-24T20:17:35.726Z,1.20
2022-10-24T20:21:18.696Z,1.25
2022-10-24T20:25:00.622Z,1.30
2022-10-24T20:28:45.239Z,1.30
2022-10-24T20:32:27.070Z,1.50
2022-10-24T20:36:09.295Z,1.63
2022-10-24T20:39:51.141Z,1.40
2022-10-24T20:43:33.039Z,1.50
2022-10-24T20:47:14.956Z,1.27
2022-10-24T20:51:13.988Z,0.98
2022-10-24T20:54:55.827Z,0.98
2022-10-24T20:58:40.035Z,1.20
2022-10-24T21:02:22.014Z,1.00
2022-10-24T21:06:05.652Z,1.00
2022-10-24T21:09:47.565Z,0.98
2022-10-24T21:13:29.441Z,0.98
2022-10-24T21:17:11.277Z,1.00
2022-10-24T21:20:53.145Z,1.05
2022-10-24T21:24:35.071Z,1.20
2022-10-24T21:28:16.906Z,0.80
2022-10-24T21:31:58.835Z,0.60
2022-10-24T21:35:40.717Z,0.65
2022-10-24T21:39:22.610Z,1.05
2022-10-24T21:43:04.484Z,0.80
2022-10-24T21:46:46.359Z,1.13
2022-10-24T21:50:28.205Z,0.75
2022-10-24T21:54:21.558Z,0.70
2022-10-24T21:58:03.446Z,0.80
2022-10-24T22:01:47.321Z,0.85
2022-10-24T22:05:29.244Z,0.80
2022-10-24T22:09:18.195Z,0.80
2022-10-24T22:13:00.053Z,0.70
2022-10-24T22:16:42.905Z,0.90
2022-10-24T22:20:24.825Z,0.80
2022-10-24T22:24:19.041Z,0.90
2022-10-24T22:28:00.910Z,0.73
2022-10-24T22:31:43.563Z,0.85
2022-10-24T22:35:26.082Z,1.10
2022-10-24T22:39:20.133Z,1.15
2022-10-24T22:43:02.132Z,0.75
2022-10-24T22:47:12.962Z,0.80
2022-10-24T22:50:56.323Z,0.77
2022-10-24T22:54:38.998Z,0.70
2022-10-24T22:58:21.700Z,0.77
2022-10-24T23:02:26.990Z,0.65
2022-10-24T23:06:19.929Z,0.60
2022-10-24T23:10:01.919Z,0.90
2022-10-24T23:13:44.022Z,0.70
2022-10-24T23:17:28.264Z,1.00
2022-10-24T23:21:26.856Z,0.90
2022-10-24T23:25:09.512Z,0.88
2022-10-24T23:29:31.031Z,0.80
2022-10-24T23:33:23.098Z,0.90
2022-10-24T23:37:06.011Z,0.80
2022-10-24T23:40:48.177Z,1.00
2022-10-24T23:44:30.347Z,1.13
2022-10-24T23:48:39.725Z,0.77
2022-10-24T23:52:30.964Z,1.00
2022-10-24T23:56:13.038Z,0.93
2022-10-24T23:59:54.896Z,1.42
